Time;durP1;ratioP1;P1;durP2;ratioP2;P2;SDS_P1;SDS_P2;PMS_P1;PMS_P2;Temp;Humidity;BMP_temperature;BMP_pressure;BME280_temperature;BME280_humidity;BME280_pressure;Samples;Min_cycle;Max_cycle;Signal;HPM_P1;HPM_P2
2021/03/20 00:00:32;;;;;;;;;;;17.60;58.40;;;;;;4908169;29;19927;-82
2021/03/20 00:02:58;;;;;;;;;;;17.60;58.40;;;;;;4904741;29;19916;-82
2021/03/20 00:05:25;;;;;;;;;;;17.50;58.30;;;;;;4898654;29;20067;-82
2021/03/20 00:07:52;;;;;;;;;;;17.60;58.30;;;;;;4903269;29;19934;-82
2021/03/20 00:10:20;;;;;;;;;;;17.50;58.30;;;;;;4903282;29;19931;-83
2021/03/20 00:12:48;;;;;;;;;;;17.50;58.30;;;;;;4897504;29;19931;-82
2021/03/20 00:15:15;;;;;;;;;;;17.50;58.30;;;;;;4908698;29;19931;-83
2021/03/20 00:17:41;;;;;;;;;;;17.50;58.30;;;;;;4882192;29;19927;-82
2021/03/20 00:20:09;;;;;;;;;;;17.50;58.30;;;;;;4906304;29;20042;-83
2021/03/20 00:22:36;;;;;;;;;;;17.50;58.30;;;;;;4907288;29;19947;-82
2021/03/20 00:25:04;;;;;;;;;;;17.40;58.20;;;;;;4900610;29;19926;-83
2021/03/20 00:27:30;;;;;;;;;;;17.50;58.30;;;;;;4884775;29;20025;-84
2021/03/20 00:29:56;;;;;;;;;;;17.50;58.30;;;;;;4903928;29;20010;-84
2021/03/20 00:32:22;;;;;;;;;;;17.50;58.30;;;;;;4902991;29;19966;-82
2021/03/20 00:34:49;;;;;;;;;;;17.40;58.10;;;;;;4903552;29;20368;-82
2021/03/20 00:37:15;;;;;;;;;;;17.40;58.20;;;;;;4900901;29;19973;-82
2021/03/20 00:39:42;;;;;;;;;;;17.40;58.10;;;;;;4900177;29;19934;-83
2021/03/20 00:42:09;;;;;;;;;;;17.40;58.10;;;;;;4898382;29;19935;-83
2021/03/20 00:44:35;;;;;;;;;;;17.30;58.20;;;;;;4901165;29;19933;-83
2021/03/20 00:47:02;;;;;;;;;;;17.30;58.20;;;;;;4898568;29;19927;-82
2021/03/20 00:49:34;;;;;;;;;;;17.40;58.30;;;;;;4892846;29;19942;-82
2021/03/20 00:52:00;;;;;;;;;;;17.30;58.60;;;;;;4897516;29;20396;-82
2021/03/20 00:54:26;;;;;;;;;;;17.40;58.00;;;;;;4897675;29;19935;-82
2021/03/20 00:56:53;;;;;;;;;;;17.30;58.00;;;;;;4904112;29;20324;-82
2021/03/20 00:59:19;;;;;;;;;;;17.30;58.00;;;;;;4904391;29;19928;-82
2021/03/20 01:01:45;;;;;;;;;;;17.30;58.00;;;;;;4906389;29;19927;-82
2021/03/20 01:04:12;;;;;;;;;;;17.30;57.90;;;;;;4887673;29;19927;-82
2021/03/20 01:06:38;;;;;;;;;;;17.30;58.00;;;;;;4905305;29;20028;-82
2021/03/20 01:09:23;;;;;;;;;;;17.20;58.50;;;;;;4899437;29;19932;-83
2021/03/20 01:11:49;;;;;;;;;;;17.20;57.80;;;;;;4908815;29;19927;-83
2021/03/20 01:14:15;;;;;;;;;;;17.30;57.90;;;;;;4902032;29;19927;-83
2021/03/20 01:16:41;;;;;;;;;;;17.30;57.90;;;;;;4905528;29;19953;-84
2021/03/20 01:19:13;;;;;;;;;;;17.20;57.80;;;;;;4906048;29;19927;-85
2021/03/20 01:21:39;;;;;;;;;;;17.20;57.80;;;;;;4903531;29;19934;-85
2021/03/20 01:24:06;;;;;;;;;;;17.20;57.80;;;;;;4905492;29;19938;-85
2021/03/20 01:26:34;;;;;;;;;;;17.20;57.70;;;;;;4903555;29;20369;-84
2021/03/20 01:29:01;;;;;;;;;;;17.20;57.70;;;;;;4907379;29;19935;-85
2021/03/20 01:31:27;;;;;;;;;;;17.20;57.80;;;;;;4902748;29;20699;-84
2021/03/20 01:33:53;;;;;;;;;;;17.20;57.80;;;;;;4904256;29;20408;-85
2021/03/20 01:36:19;;;;;;;;;;;17.20;57.70;;;;;;4902580;29;20196;-83
2021/03/20 01:38:46;;;;;;;;;;;17.20;57.70;;;;;;4887929;29;19955;-82
2021/03/20 01:41:14;;;;;;;;;;;17.10;58.20;;;;;;4902944;29;19927;-82
2021/03/20 01:43:40;;;;;;;;;;;17.10;57.70;;;;;;4910706;29;20666;-82
2021/03/20 01:46:25;;;;;;;;;;;17.10;57.60;;;;;;4908038;29;19962;-82
2021/03/20 01:48:53;;;;;;;;;;;17.10;57.60;;;;;;4911874;29;19927;-83
2021/03/20 01:51:20;;;;;;;;;;;17.10;57.60;;;;;;4891103;29;19938;-83
2021/03/20 01:53:48;;;;;;;;;;;17.10;57.60;;;;;;4908553;29;20682;-83
2021/03/20 01:56:16;;;;;;;;;;;17.10;57.50;;;;;;4909477;29;19928;-82
2021/03/20 01:58:43;;;;;;;;;;;17.10;57.50;;;;;;4906665;29;20012;-82
2021/03/20 02:01:21;;;;;;;;;;;17.10;57.60;;;;;;4909696;29;19933;-83
2021/03/20 02:03:48;;;;;;;;;;;17.10;57.60;;;;;;4911665;29;19933;-83
2021/03/20 02:06:15;;;;;;;;;;;17.10;57.50;;;;;;4909294;29;19927;-82
2021/03/20 02:08:42;;;;;;;;;;;17.10;57.60;;;;;;4901890;29;19985;-83
2021/03/20 02:11:14;;;;;;;;;;;17.00;57.50;;;;;;4910393;29;19959;-83
2021/03/20 02:13:42;;;;;;;;;;;17.00;57.50;;;;;;4909667;29;19966;-83
2021/03/20 02:16:23;;;;;;;;;;;17.00;57.50;;;;;;4907436;29;20399;-83
2021/03/20 02:19:02;;;;;;;;;;;17.00;57.40;;;;;;4906683;29;19927;-83
2021/03/20 02:21:34;;;;;;;;;;;17.00;57.50;;;;;;4902821;29;19931;-83
2021/03/20 02:24:00;;;;;;;;;;;17.00;57.50;;;;;;4897906;29;19927;-83
2021/03/20 02:26:38;;;;;;;;;;;17.00;57.50;;;;;;4907277;29;19931;-83
2021/03/20 02:29:25;;;;;;;;;;;17.00;57.40;;;;;;4903151;29;19970;-83
2021/03/20 02:31:57;;;;;;;;;;;17.00;57.40;;;;;;4907864;29;19927;-83
2021/03/20 02:34:38;;;;;;;;;;;17.00;57.40;;;;;;4887394;29;19938;-84
2021/03/20 02:37:13;;;;;;;;;;;17.00;57.40;;;;;;4904722;29;19934;-84
2021/03/20 02:39:45;;;;;;;;;;;16.90;57.30;;;;;;4901138;29;19983;-84
2021/03/20 02:42:27;;;;;;;;;;;17.00;57.40;;;;;;4892199;29;19938;-84
2021/03/20 02:44:58;;;;;;;;;;;17.00;57.40;;;;;;4907667;29;19927;-84
2021/03/20 02:47:29;;;;;;;;;;;17.00;57.40;;;;;;4901276;29;20354;-83
2021/03/20 02:49:59;;;;;;;;;;;17.00;57.40;;;;;;4889565;29;19927;-83
2021/03/20 02:52:33;;;;;;;;;;;16.90;57.30;;;;;;4908459;29;20436;-84
2021/03/20 02:54:59;;;;;;;;;;;16.90;57.30;;;;;;4903537;29;20046;-83
2021/03/20 02:57:28;;;;;;;;;;;16.90;57.30;;;;;;4900772;29;19928;-83
2021/03/20 03:00:00;;;;;;;;;;;16.90;57.30;;;;;;4906115;29;19931;-82
2021/03/20 03:02:28;;;;;;;;;;;16.90;57.20;;;;;;4904117;29;19934;-82
2021/03/20 03:05:06;;;;;;;;;;;16.90;57.20;;;;;;4909731;29;19947;-82
2021/03/20 03:07:35;;;;;;;;;;;16.90;57.30;;;;;;4904132;29;19931;-82
2021/03/20 03:10:09;;;;;;;;;;;16.90;57.30;;;;;;4904750;29;19927;-82
2021/03/20 03:12:42;;;;;;;;;;;16.90;57.20;;;;;;4899846;29;20430;-82
2021/03/20 03:15:11;;;;;;;;;;;16.90;57.20;;;;;;4901994;29;19935;-82
2021/03/20 03:17:41;;;;;;;;;;;16.90;57.20;;;;;;4901743;29;20351;-82
2021/03/20 03:20:17;;;;;;;;;;;16.90;57.20;;;;;;4906295;29;19927;-81
2021/03/20 03:22:47;;;;;;;;;;;16.80;57.10;;;;;;4905246;29;19932;-82
2021/03/20 03:25:15;;;;;;;;;;;16.80;57.10;;;;;;4901642;29;19931;-83
2021/03/20 03:27:45;;;;;;;;;;;16.80;57.10;;;;;;4907487;29;19931;-82
2021/03/20 03:30:18;;;;;;;;;;;16.90;57.10;;;;;;4902283;29;19931;-83
2021/03/20 03:32:47;;;;;;;;;;;16.80;57.10;;;;;;4903805;29;19927;-83
2021/03/20 03:35:26;;;;;;;;;;;16.80;57.00;;;;;;4902974;29;20026;-83
2021/03/20 03:38:05;;;;;;;;;;;16.80;57.00;;;;;;4899564;29;19927;-81
2021/03/20 03:40:43;;;;;;;;;;;16.80;57.00;;;;;;4898872;29;20316;-82
2021/03/20 03:43:10;;;;;;;;;;;16.80;57.10;;;;;;4903108;29;19934;-82
2021/03/20 03:45:36;;;;;;;;;;;16.80;57.00;;;;;;4903579;29;20014;-82
2021/03/20 03:48:03;;;;;;;;;;;16.80;57.00;;;;;;4900752;29;19927;-83
2021/03/20 03:50:32;;;;;;;;;;;16.80;57.00;;;;;;4894508;29;19927;-82
2021/03/20 03:52:58;;;;;;;;;;;16.80;57.00;;;;;;4904767;29;19911;-82
2021/03/20 03:55:24;;;;;;;;;;;16.70;57.00;;;;;;4910465;29;19927;-83
2021/03/20 03:58:00;;;;;;;;;;;16.70;56.90;;;;;;4907454;29;20424;-83
2021/03/20 04:00:30;;;;;;;;;;;16.80;57.00;;;;;;4899895;29;19927;-83
2021/03/20 04:03:03;;;;;;;;;;;16.70;56.90;;;;;;4888830;29;20448;-84
2021/03/20 04:05:36;;;;;;;;;;;16.70;56.90;;;;;;4898937;29;19930;-85
2021/03/20 04:08:12;;;;;;;;;;;16.70;56.90;;;;;;4906394;29;19969;-84
2021/03/20 04:10:56;;;;;;;;;;;16.70;56.90;;;;;;4903662;29;19938;-84
2021/03/20 04:13:31;;;;;;;;;;;16.70;56.90;;;;;;4900189;29;20435;-84
2021/03/20 04:16:14;;;;;;;;;;;16.70;56.80;;;;;;4902649;29;20025;-84
2021/03/20 04:19:00;;;;;;;;;;;16.70;56.90;;;;;;4905319;29;19963;-82
2021/03/20 04:21:31;;;;;;;;;;;16.70;56.80;;;;;;4902348;29;19927;-83
2021/03/20 04:24:06;;;;;;;;;;;16.70;56.90;;;;;;4899101;29;20301;-83
2021/03/20 04:26:50;;;;;;;;;;;16.70;56.90;;;;;;4897809;29;20306;-83
2021/03/20 04:29:37;;;;;;;;;;;16.70;56.90;;;;;;4902912;29;21008;-83
2021/03/20 04:32:13;;;;;;;;;;;16.70;56.80;;;;;;4905142;29;19973;-81
2021/03/20 04:34:42;;;;;;;;;;;16.60;56.80;;;;;;4899129;29;20432;-82
2021/03/20 04:37:13;;;;;;;;;;;16.60;56.80;;;;;;4894361;29;20011;-81
2021/03/20 04:39:45;;;;;;;;;;;16.70;56.80;;;;;;4900910;29;19962;-81
2021/03/20 04:42:14;;;;;;;;;;;16.70;56.80;;;;;;4906332;29;20304;-81
2021/03/20 04:44:41;;;;;;;;;;;16.60;56.80;;;;;;4894974;29;19931;-81
2021/03/20 04:47:11;;;;;;;;;;;16.60;56.70;;;;;;4894204;29;19931;-82
2021/03/20 04:49:49;;;;;;;;;;;16.60;56.70;;;;;;4898898;29;19927;-82
2021/03/20 04:52:21;;;;;;;;;;;16.60;56.70;;;;;;4899903;29;19946;-82
2021/03/20 04:54:47;;;;;;;;;;;16.60;56.70;;;;;;4907440;29;19935;-82
2021/03/20 04:57:24;;;;;;;;;;;16.60;56.60;;;;;;4907482;29;20069;-82
2021/03/20 05:00:11;;;;;;;;;;;16.60;56.70;;;;;;4905013;29;19927;-82
2021/03/20 05:02:52;;;;;;;;;;;16.60;56.60;;;;;;4891699;29;19937;-82
2021/03/20 05:05:25;;;;;;;;;;;16.60;56.60;;;;;;4906349;29;20003;-81
2021/03/20 05:07:57;;;;;;;;;;;16.60;56.60;;;;;;4905076;29;19934;-81
2021/03/20 05:10:59;;;;;;;;;;;16.60;57.20;;;;;;4901455;29;19933;-81
2021/03/20 05:13:30;;;;;;;;;;;16.50;56.50;;;;;;4865521;29;19998;-82
2021/03/20 05:16:08;;;;;;;;;;;16.50;56.50;;;;;;4910958;29;19934;-82
2021/03/20 05:18:35;;;;;;;;;;;16.50;56.50;;;;;;4881992;29;20483;-82
2021/03/20 05:21:01;;;;;;;;;;;16.50;56.50;;;;;;4899464;29;19927;-81
2021/03/20 05:23:27;;;;;;;;;;;16.50;56.50;;;;;;4881433;29;20424;-78
2021/03/20 05:25:54;;;;;;;;;;;16.50;56.50;;;;;;4907585;29;20448;-83
2021/03/20 05:28:20;;;;;;;;;;;16.50;56.50;;;;;;4903674;29;19959;-85
2021/03/20 05:30:59;;;;;;;;;;;16.50;56.50;;;;;;4891607;29;19931;-85
2021/03/20 05:33:26;;;;;;;;;;;16.50;56.50;;;;;;4905035;29;19975;-85
2021/03/20 05:35:53;;;;;;;;;;;16.50;56.50;;;;;;4896556;29;19927;-93
2021/03/20 05:38:19;;;;;;;;;;;16.50;56.50;;;;;;4919995;29;19958;-92
2021/03/20 05:40:46;;;;;;;;;;;16.50;56.50;;;;;;4905161;29;19978;-93
2021/03/20 05:43:31;;;;;;;;;;;16.50;56.50;;;;;;4906288;29;20026;-92
2021/03/20 05:46:14;;;;;;;;;;;16.40;57.10;;;;;;4901004;29;19915;-94
2021/03/20 05:48:47;;;;;;;;;;;16.50;56.60;;;;;;4898354;29;19928;-94
2021/03/20 05:51:50;;;;;;;;;;;16.50;56.60;;;;;;4898911;29;20021;-92
2021/03/20 05:54:29;;;;;;;;;;;16.50;56.60;;;;;;4806300;29;19943;-93
2021/03/20 05:57:14;;;;;;;;;;;16.40;56.50;;;;;;4903181;29;20376;-94
2021/03/20 05:59:49;;;;;;;;;;;16.40;56.50;;;;;;4904379;29;20076;-92
2021/03/20 06:02:19;;;;;;;;;;;16.40;56.50;;;;;;4915413;29;19990;-93
2021/03/20 06:04:52;;;;;;;;;;;16.40;56.60;;;;;;4916643;29;20339;-87
2021/03/20 06:07:36;;;;;;;;;;;16.40;56.50;;;;;;4907493;29;19927;-88
2021/03/20 06:10:27;;;;;;;;;;;16.40;56.50;;;;;;4892435;29;19938;-89
2021/03/20 06:13:03;;;;;;;;;;;16.40;56.50;;;;;;4873095;29;19934;-89
2021/03/20 06:15:48;;;;;;;;;;;16.40;56.40;;;;;;4911639;29;19927;-91
2021/03/20 06:18:37;;;;;;;;;;;16.40;56.40;;;;;;4902328;29;19946;-90
2021/03/20 06:21:16;;;;;;;;;;;16.40;57.20;;;;;;4902774;29;19911;-89
2021/03/20 06:24:00;;;;;;;;;;;16.50;57.60;;;;;;5099980;23;20151;-95
2021/03/20 06:26:32;;;;;;;;;;;16.60;57.40;;;;;;4919284;28;19962;-94
2021/03/20 06:29:09;;;;;;;;;;;16.60;57.30;;;;;;4899951;29;19931;-91
2021/03/20 06:31:37;;;;;;;;;;;16.70;57.10;;;;;;4903905;29;20013;-94
2021/03/20 06:34:10;;;;;;;;;;;16.70;56.90;;;;;;4904433;29;19982;-95
2021/03/20 06:36:40;;;;;;;;;;;16.70;56.60;;;;;;4901815;29;19922;-83
2021/03/20 06:39:09;;;;;;;;;;;16.80;56.70;;;;;;4892072;29;19927;-84
2021/03/20 06:41:42;;;;;;;;;;;16.90;56.60;;;;;;4908992;29;20622;-86
2021/03/20 06:44:31;;;;;;;;;;;16.90;56.20;;;;;;4892212;29;20395;-88
2021/03/20 06:46:57;;;;;;;;;;;17.00;56.20;;;;;;4910530;29;20300;-88
2021/03/20 06:49:30;;;;;;;;;;;17.00;56.00;;;;;;4897436;29;19973;-95
2021/03/20 06:52:00;;;;;;;;;;;17.00;55.70;;;;;;4902719;29;19938;-87
2021/03/20 06:54:27;;;;;;;;;;;17.00;55.80;;;;;;4895012;29;20015;-85
2021/03/20 06:56:53;;;;;;;;;;;17.10;55.70;;;;;;4893261;29;20014;-84
2021/03/20 06:59:23;;;;;;;;;;;17.10;55.60;;;;;;4905109;29;20423;-86
2021/03/20 07:02:01;;;;;;;;;;;17.10;55.60;;;;;;4905029;29;19946;-92
2021/03/20 07:04:37;;;;;;;;;;;17.10;55.30;;;;;;4888443;29;19998;-92
2021/03/20 07:07:03;;;;;;;;;;;17.20;55.00;;;;;;4896436;29;19931;-93
2021/03/20 07:09:40;;;;;;;;;;;17.20;54.90;;;;;;4910862;29;20352;-91
2021/03/20 07:12:18;;;;;;;;;;;17.10;54.50;;;;;;4884027;29;19977;-93
2021/03/20 07:14:45;;;;;;;;;;;17.10;54.40;;;;;;4898834;29;20061;-93
2021/03/20 07:17:21;;;;;;;;;;;17.10;54.30;;;;;;4915039;29;19993;-95
2021/03/20 07:20:06;;;;;;;;;;;17.10;54.40;;;;;;4913305;28;19938;-94
2021/03/20 07:22:36;;;;;;;;;;;17.00;54.30;;;;;;4909769;29;20346;-91
2021/03/20 07:25:21;;;;;;;;;;;17.00;54.20;;;;;;4900258;29;20089;-91
2021/03/20 07:27:48;;;;;;;;;;;17.00;54.20;;;;;;4914309;29;19927;-90
2021/03/20 07:30:37;;;;;;;;;;;17.00;54.20;;;;;;4895632;29;20299;-88
2021/03/20 07:33:25;;;;;;;;;;;17.00;54.30;;;;;;4892991;29;20022;-87
2021/03/20 07:35:52;;;;;;;;;;;16.90;54.10;;;;;;4892433;29;19934;-90
2021/03/20 07:38:29;;;;;;;;;;;16.90;54.00;;;;;;4895969;29;20043;-91
2021/03/20 07:41:08;;;;;;;;;;;16.90;53.90;;;;;;4898654;29;19935;-88
2021/03/20 07:43:35;;;;;;;;;;;16.90;53.80;;;;;;4892274;29;19934;-84
2021/03/20 07:46:07;;;;;;;;;;;16.80;54.10;;;;;;4910361;29;20569;-90
2021/03/20 07:48:33;;;;;;;;;;;16.80;54.50;;;;;;4896749;29;19927;-90
2021/03/20 07:51:10;;;;;;;;;;;16.80;54.70;;;;;;4895877;29;19934;-91
2021/03/20 07:53:48;;;;;;;;;;;16.80;54.90;;;;;;4894730;29;19974;-92
2021/03/20 07:56:29;;;;;;;;;;;16.80;55.20;;;;;;4892870;29;20450;-90
2021/03/20 07:59:44;;;;;;;;;;;16.80;55.30;;;;;;4869029;29;19973;-87
2021/03/20 08:02:13;;;;;;;;;;;16.80;55.20;;;;;;4869712;29;19935;-92
2021/03/20 08:04:53;;;;;;;;;;;16.80;55.30;;;;;;4870849;29;19935;-91
2021/03/20 08:07:34;;;;;;;;;;;16.80;55.20;;;;;;4875007;29;19931;-94
2021/03/20 08:10:07;;;;;;;;;;;16.70;55.20;;;;;;4876568;29;20197;-94
2021/03/20 08:12:49;;;;;;;;;;;16.80;55.30;;;;;;4875187;29;19980;-89
2021/03/20 08:15:19;;;;;;;;;;;16.70;55.40;;;;;;4858849;29;20389;-96
2021/03/20 08:17:47;;;;;;;;;;;16.80;56.10;;;;;;4877124;29;20022;-90
2021/03/20 08:20:21;;;;;;;;;;;16.80;56.00;;;;;;4862985;29;19928;-93
2021/03/20 08:23:09;;;;;;;;;;;16.80;56.20;;;;;;4877613;29;19963;-95
2021/03/20 08:25:56;;;;;;;;;;;16.70;55.90;;;;;;4871580;29;19935;-95
2021/03/20 08:28:28;;;;;;;;;;;16.80;56.00;;;;;;4888255;29;19991;-95
2021/03/20 08:31:12;;;;;;;;;;;16.70;55.80;;;;;;4915279;29;19979;-96
2021/03/20 08:33:38;;;;;;;;;;;16.70;55.50;;;;;;4880282;29;21442;-89
2021/03/20 08:36:27;;;;;;;;;;;16.80;55.50;;;;;;4912521;29;19935;-96
2021/03/20 08:39:02;;;;;;;;;;;16.90;56.20;;;;;;4912158;29;19928;-90
2021/03/20 08:41:44;;;;;;;;;;;17.10;56.00;;;;;;4896958;29;19935;-87
2021/03/20 08:44:40;;;;;;;;;;;17.10;55.70;;;;;;4896895;29;19927;-93
2021/03/20 08:47:22;;;;;;;;;;;17.20;55.60;;;;;;4882747;29;19939;-91
2021/03/20 08:50:10;;;;;;;;;;;17.30;55.50;;;;;;4904357;29;20311;-92
2021/03/20 08:52:56;;;;;;;;;;;17.40;55.80;;;;;;4899039;29;19995;-93
2021/03/20 08:55:25;;;;;;;;;;;17.40;55.40;;;;;;4894504;29;19935;-86
2021/03/20 08:57:55;;;;;;;;;;;17.50;55.50;;;;;;4909873;29;19927;-86
2021/03/20 09:00:35;;;;;;;;;;;17.50;55.50;;;;;;4893994;29;19934;-84
2021/03/20 09:03:14;;;;;;;;;;;17.50;55.40;;;;;;4907413;29;19931;-85
2021/03/20 09:05:43;;;;;;;;;;;17.60;55.30;;;;;;4911621;29;20609;-82
2021/03/20 09:08:17;;;;;;;;;;;17.60;55.30;;;;;;4911083;29;19950;-88
2021/03/20 09:10:58;;;;;;;;;;;17.70;55.10;;;;;;4892087;29;19931;-83
2021/03/20 09:13:35;;;;;;;;;;;17.70;55.00;;;;;;4910840;29;19927;-86
2021/03/20 09:16:05;;;;;;;;;;;17.80;54.90;;;;;;4894264;29;19935;-83
2021/03/20 09:18:33;;;;;;;;;;;17.80;54.90;;;;;;4895285;29;19951;-87
2021/03/20 09:21:01;;;;;;;;;;;17.90;54.80;;;;;;4909950;29;20361;-85
2021/03/20 09:23:48;;;;;;;;;;;17.90;54.70;;;;;;4897946;29;19990;-91
2021/03/20 09:26:53;;;;;;;;;;;18.00;54.40;;;;;;4897252;29;19954;-88
2021/03/20 09:29:24;;;;;;;;;;;18.00;54.60;;;;;;4829389;29;19999;-92
2021/03/20 09:31:53;;;;;;;;;;;18.00;54.10;;;;;;4842486;29;19935;-90
2021/03/20 09:34:33;;;;;;;;;;;18.10;54.40;;;;;;4870138;29;20300;-94
2021/03/20 09:37:00;;;;;;;;;;;18.10;54.40;;;;;;4912139;29;19999;-84
2021/03/20 09:39:36;;;;;;;;;;;18.10;54.40;;;;;;4885785;29;19942;-85
2021/03/20 09:42:03;;;;;;;;;;;18.10;54.20;;;;;;4903909;29;19966;-87
2021/03/20 09:44:31;;;;;;;;;;;18.20;54.00;;;;;;4887716;29;19937;-88
2021/03/20 09:46:59;;;;;;;;;;;18.20;53.90;;;;;;4894664;29;20027;-84
2021/03/20 09:49:25;;;;;;;;;;;18.20;53.80;;;;;;4890738;29;19990;-89
2021/03/20 09:51:55;;;;;;;;;;;18.30;53.50;;;;;;4898008;29;19927;-90
2021/03/20 09:54:21;;;;;;;;;;;18.30;53.60;;;;;;4892920;29;20034;-90
2021/03/20 09:56:50;;;;;;;;;;;18.40;53.70;;;;;;4899394;29;19954;-88
2021/03/20 09:59:29;;;;;;;;;;;18.50;53.80;;;;;;4875042;29;19923;-89
2021/03/20 10:01:59;;;;;;;;;;;18.40;54.00;;;;;;4909708;29;20053;-94
2021/03/20 10:04:35;;;;;;;;;;;18.40;54.30;;;;;;4896291;29;20095;-93
2021/03/20 10:07:26;;;;;;;;;;;18.50;54.40;;;;;;4912204;29;19915;-85
2021/03/20 10:09:53;;;;;;;;;;;18.50;54.70;;;;;;4908251;29;20030;-87
2021/03/20 10:12:38;;;;;;;;;;;18.60;54.70;;;;;;4894822;29;19927;-93
2021/03/20 10:15:15;;;;;;;;;;;18.80;54.70;;;;;;4895746;29;20033;-91
2021/03/20 10:18:00;;;;;;;;;;;19.80;51.90;;;;;;4911635;29;19955;-92
2021/03/20 10:20:56;;;;;;;;;;;20.40;50.60;;;;;;4898054;29;19935;-94
2021/03/20 10:23:25;;;;;;;;;;;20.90;49.50;;;;;;4896100;29;19937;-92
2021/03/20 10:25:53;;;;;;;;;;;21.20;48.80;;;;;;4889229;29;19979;-87
2021/03/20 10:28:20;;;;;;;;;;;21.60;48.40;;;;;;4907148;29;21424;-84
2021/03/20 10:30:59;;;;;;;;;;;21.90;48.00;;;;;;4905309;29;20389;-83
2021/03/20 10:33:31;;;;;;;;;;;22.00;47.50;;;;;;4888787;29;20455;-85
2021/03/20 10:36:07;;;;;;;;;;;22.20;47.50;;;;;;4891265;29;19931;-87
2021/03/20 10:38:33;;;;;;;;;;;21.50;45.70;;;;;;4894133;29;19943;-81
2021/03/20 10:41:02;;;;;;;;;;;20.50;48.30;;;;;;4908868;29;20759;-83
2021/03/20 10:43:37;;;;;;;;;;;20.00;50.10;;;;;;4909502;29;19970;-83
2021/03/20 10:46:03;;;;;;;;;;;19.70;51.20;;;;;;4907852;29;19915;-83
2021/03/20 10:48:31;;;;;;;;;;;19.60;51.90;;;;;;4906093;29;19935;-82
2021/03/20 10:51:02;;;;;;;;;;;19.40;52.60;;;;;;4908769;29;20412;-83
2021/03/20 10:53:31;;;;;;;;;;;19.30;53.00;;;;;;4892129;29;20422;-83
2021/03/20 10:55:58;;;;;;;;;;;19.30;53.20;;;;;;4905879;29;19931;-82
2021/03/20 10:58:39;;;;;;;;;;;19.20;53.70;;;;;;4907667;29;20035;-83
2021/03/20 11:01:06;;;;;;;;;;;19.10;53.70;;;;;;4891355;29;19931;-83
2021/03/20 11:03:36;;;;;;;;;;;19.10;54.00;;;;;;4892956;29;20313;-83
2021/03/20 11:06:13;;;;;;;;;;;19.00;54.00;;;;;;4905312;29;19935;-82
2021/03/20 11:08:40;;;;;;;;;;;19.10;53.60;;;;;;4908066;29;19933;-82
2021/03/20 11:11:12;;;;;;;;;;;19.00;53.90;;;;;;4910106;29;19934;-83
2021/03/20 11:13:46;;;;;;;;;;;19.00;54.00;;;;;;4908654;29;19959;-83
2021/03/20 11:16:17;;;;;;;;;;;18.90;54.20;;;;;;4893102;29;19936;-82
2021/03/20 11:18:45;;;;;;;;;;;18.90;54.20;;;;;;4911368;29;19927;-82
2021/03/20 11:21:24;;;;;;;;;;;18.90;54.20;;;;;;4896141;29;19938;-82
2021/03/20 11:23:59;;;;;;;;;;;18.80;54.30;;;;;;4910641;29;19935;-82
2021/03/20 11:26:43;;;;;;;;;;;18.80;54.00;;;;;;4908382;29;20439;-83
2021/03/20 11:29:14;;;;;;;;;;;18.80;54.30;;;;;;4910172;29;19999;-83
2021/03/20 11:31:44;;;;;;;;;;;18.70;54.30;;;;;;4904929;29;19931;-83
2021/03/20 11:34:15;;;;;;;;;;;18.70;54.60;;;;;;4911131;29;19931;-83
2021/03/20 11:36:41;;;;;;;;;;;18.70;54.50;;;;;;4909936;29;19954;-85
2021/03/20 11:39:09;;;;;;;;;;;18.70;54.90;;;;;;4909840;29;19928;-85
2021/03/20 11:41:38;;;;;;;;;;;18.70;54.70;;;;;;4908407;29;20133;-86
2021/03/20 11:44:18;;;;;;;;;;;18.60;54.90;;;;;;4908902;29;20505;-80
2021/03/20 11:46:49;;;;;;;;;;;18.70;55.30;;;;;;4907484;29;19962;-83
2021/03/20 11:49:34;;;;;;;;;;;18.60;55.00;;;;;;4907000;29;20393;-83
2021/03/20 11:52:02;;;;;;;;;;;18.70;55.10;;;;;;4907109;29;20439;-83
2021/03/20 11:54:38;;;;;;;;;;;18.60;54.90;;;;;;4907844;29;19966;-86
2021/03/20 11:57:10;;;;;;;;;;;18.60;55.60;;;;;;4889691;29;20419;-91
2021/03/20 11:59:42;;;;;;;;;;;18.70;55.50;;;;;;4905918;29;20726;-92
2021/03/20 12:02:20;;;;;;;;;;;18.70;55.50;;;;;;4894407;29;19934;-89
2021/03/20 12:04:47;;;;;;;;;;;18.80;55.20;;;;;;4891954;29;19962;-90
2021/03/20 12:07:21;;;;;;;;;;;18.80;55.00;;;;;;4883363;29;19938;-90
2021/03/20 12:09:49;;;;;;;;;;;18.90;55.10;;;;;;4898838;29;19931;-85
2021/03/20 12:12:16;;;;;;;;;;;18.90;55.30;;;;;;4890614;29;19958;-87
2021/03/20 12:14:43;;;;;;;;;;;19.00;55.00;;;;;;4904507;29;20006;-85
2021/03/20 12:17:10;;;;;;;;;;;18.90;55.00;;;;;;4887145;29;20351;-90
2021/03/20 12:19:55;;;;;;;;;;;19.00;54.90;;;;;;4887489;29;19915;-84
2021/03/20 12:22:30;;;;;;;;;;;19.00;55.70;;;;;;4903160;28;19931;-87
2021/03/20 12:25:04;;;;;;;;;;;19.00;55.70;;;;;;4892029;29;20025;-86
2021/03/20 12:27:35;;;;;;;;;;;19.00;55.50;;;;;;4890349;29;19946;-88
2021/03/20 12:30:02;;;;;;;;;;;19.10;54.90;;;;;;4888897;29;19966;-82
2021/03/20 12:32:42;;;;;;;;;;;19.10;54.80;;;;;;4903101;29;19935;-87
2021/03/20 12:35:19;;;;;;;;;;;19.00;54.90;;;;;;4903254;29;19923;-87
2021/03/20 12:37:49;;;;;;;;;;;19.00;54.90;;;;;;4892556;29;19953;-85
2021/03/20 12:40:17;;;;;;;;;;;19.00;54.80;;;;;;4886141;29;19927;-87
2021/03/20 12:42:44;;;;;;;;;;;19.00;54.70;;;;;;4888499;29;19931;-88
2021/03/20 12:45:16;;;;;;;;;;;19.00;54.60;;;;;;4902920;29;19931;-87
2021/03/20 12:47:43;;;;;;;;;;;19.00;54.20;;;;;;4882658;29;19976;-86
2021/03/20 12:50:10;;;;;;;;;;;19.00;54.30;;;;;;4889908;29;19931;-87
2021/03/20 12:52:37;;;;;;;;;;;19.00;54.00;;;;;;4888284;29;20333;-88
2021/03/20 12:55:05;;;;;;;;;;;19.00;54.20;;;;;;4889847;29;19935;-87
2021/03/20 12:57:35;;;;;;;;;;;19.00;54.20;;;;;;4893611;29;19970;-87
2021/03/20 13:00:05;;;;;;;;;;;19.00;54.20;;;;;;4886765;29;19928;-86
2021/03/20 13:02:32;;;;;;;;;;;19.00;54.20;;;;;;4906598;29;20331;-86
2021/03/20 13:04:58;;;;;;;;;;;18.90;54.00;;;;;;4907416;29;19927;-86
2021/03/20 13:07:24;;;;;;;;;;;18.90;54.00;;;;;;4887797;29;20599;-87
2021/03/20 13:09:51;;;;;;;;;;;19.00;53.80;;;;;;4889865;29;19944;-87
2021/03/20 13:12:17;;;;;;;;;;;19.00;53.70;;;;;;4905069;29;19986;-87
2021/03/20 13:14:44;;;;;;;;;;;18.90;53.80;;;;;;4895444;29;19934;-86
2021/03/20 13:17:11;;;;;;;;;;;18.90;54.50;;;;;;4893062;29;19957;-84
2021/03/20 13:19:38;;;;;;;;;;;18.90;53.80;;;;;;4909537;29;19927;-86
2021/03/20 13:22:05;;;;;;;;;;;18.90;53.80;;;;;;4909285;29;20022;-86
2021/03/20 13:24:32;;;;;;;;;;;18.90;53.90;;;;;;4886763;29;19935;-86
2021/03/20 13:26:58;;;;;;;;;;;18.90;54.00;;;;;;4907846;29;20007;-87
2021/03/20 13:29:25;;;;;;;;;;;18.90;53.90;;;;;;4894420;29;19931;-87
2021/03/20 13:31:52;;;;;;;;;;;18.90;53.80;;;;;;4891117;29;19937;-86
2021/03/20 13:34:18;;;;;;;;;;;18.90;53.80;;;;;;4893387;29;20025;-86
2021/03/20 13:36:45;;;;;;;;;;;18.90;53.80;;;;;;4894434;29;20554;-87
2021/03/20 13:39:12;;;;;;;;;;;18.90;53.90;;;;;;4897822;29;19945;-90
2021/03/20 13:41:38;;;;;;;;;;;18.90;53.90;;;;;;4890329;29;20426;-89
2021/03/20 13:44:05;;;;;;;;;;;18.80;54.10;;;;;;4891814;29;20001;-90
2021/03/20 13:46:32;;;;;;;;;;;18.90;54.20;;;;;;4891072;29;20451;-90
2021/03/20 13:49:05;;;;;;;;;;;18.80;54.40;;;;;;4880310;29;19954;-90
2021/03/20 13:51:32;;;;;;;;;;;18.80;54.60;;;;;;4911407;29;19931;-88
2021/03/20 13:53:58;;;;;;;;;;;18.80;54.60;;;;;;4886017;29;20499;-92
2021/03/20 13:56:24;;;;;;;;;;;18.80;54.60;;;;;;4905948;29;19931;-89
2021/03/20 13:58:51;;;;;;;;;;;18.80;54.60;;;;;;4891751;29;19935;-90
2021/03/20 14:01:17;;;;;;;;;;;18.80;54.20;;;;;;4889973;29;20607;-86
2021/03/20 14:03:44;;;;;;;;;;;18.80;53.80;;;;;;4893278;29;20018;-84
2021/03/20 14:06:10;;;;;;;;;;;18.80;53.80;;;;;;4888872;29;19935;-85
2021/03/20 14:08:37;;;;;;;;;;;18.80;53.20;;;;;;4903691;29;19931;-85
2021/03/20 14:11:04;;;;;;;;;;;18.90;52.40;;;;;;4893752;29;19931;-83
2021/03/20 14:13:31;;;;;;;;;;;18.90;52.80;;;;;;4903658;29;19935;-84
2021/03/20 14:15:58;;;;;;;;;;;19.00;52.40;;;;;;4902941;29;19931;-87
2021/03/20 14:18:25;;;;;;;;;;;19.00;52.80;;;;;;4900692;29;19928;-89
2021/03/20 14:20:54;;;;;;;;;;;19.00;52.80;;;;;;4884463;29;19946;-88
2021/03/20 14:23:21;;;;;;;;;;;18.90;52.50;;;;;;4886716;29;20164;-89
2021/03/20 14:25:50;;;;;;;;;;;18.90;52.30;;;;;;4886804;29;19931;-88
2021/03/20 14:28:19;;;;;;;;;;;18.90;52.50;;;;;;4882622;29;19959;-89
2021/03/20 14:30:55;;;;;;;;;;;18.90;52.20;;;;;;4886572;29;19935;-89
2021/03/20 14:33:23;;;;;;;;;;;18.90;52.60;;;;;;4890567;29;19923;-89
2021/03/20 14:35:50;;;;;;;;;;;18.90;52.50;;;;;;4883739;29;19938;-89
2021/03/20 14:38:17;;;;;;;;;;;18.90;52.50;;;;;;4897580;29;19931;-88
2021/03/20 14:40:49;;;;;;;;;;;18.90;52.50;;;;;;4888896;29;19969;-85
2021/03/20 14:43:17;;;;;;;;;;;18.90;52.70;;;;;;4879318;29;21340;-92
2021/03/20 14:45:44;;;;;;;;;;;18.90;52.60;;;;;;4889068;29;20010;-87